Albuquerque, NM

5:59 PM MDT on August 27, 2014 (GMT -0600)
Albuquerque Double Eagle | Change Station
CLOSE
Current Station
Airport
Location: Albuquerque Double Eagle,
Elevation: 5837 ft
Nearby Weather Stations

Elev 5837 ft 35.15 °N, 106.79 °W | Updated 10 minutes ago

Scattered Clouds
Scattered Clouds
75 °F
Feels Like 75 °F
N
0
Wind Variable Wind from North

Today
High -- | Low -- °F
--% Chance of Precip.
Yesterday
High -- | Low -- °F
Precip. -- in
6:35 AM 7:39 PM
Waxing Crescent, 5% visible
Pressure 30.24 in
Visibility 10.0 miles
Clouds Scattered Clouds 8000 ft
Dew Point 48 °F
Humidity 38%
Rainfall 0.19 in
Snow Depth Not available.
UV 1 out of 12
Pollen 4.30 out of 12
Air Quality Not available.
Flu Activity Not available.
METAR KAEG 272349Z 00000KT 10SM SCT080CU 24/09 A3024 RMK CU DSNT ALQDS

More Conditions Fewer Conditions

Pressure 30.24 in
Visibility 10.0 miles
Clouds Scattered Clouds 8000 ft
Dew Point 48 °F
Humidity 38%
Rainfall 0.19 in
Snow Depth Not available.
UV 1 out of 12
Pollen 4.30 out of 12
Air Quality Not available.
Flu Activity Not available.
METAR KAEG 272349Z 00000KT 10SM SCT080CU 24/09 A3024 RMK CU DSNT ALQDS

More Conditions Fewer Conditions

Nowcast | as of 5:59 PM MDT on August 27, 2014

Through 8 PM...isolated showers and thunderstorms will continue over western and central New Mexico. Movement will be to the east at 20 mph. The strongest storms will be capable of producing between one quarter and one half inch of rainfall...with locally higher amounts possible. Wind gusts will be up to 45 mph...Marble size hail and dangerous cloud to ground lightning will also accompany the stronger storms. Locations potentially impacted through 8 PM include the eastern and southern portion of the Whitewater Baldy burn scar complex...the northern portion of the Miller burn scar... Beaverhead...Magdalena...the blanco Trading Post...Nageezi and Navajo Dam.

×

10-Day Weather Forecast

Almanac

Astronomy

Aug. 27, 2014 Rise Set
Actual Time 6:35 AM MDT 7:39 PM MDT
Civil Twilight 6:09 AM MDT 8:06 PM MDT
Nautical Twilight 5:38 AM MDT 8:37 PM MDT
Astronomical Twilight 5:06 AM MDT 9:09 PM MDT
Moon 8:28 AM MDT 8:40 PM MDT
Length of Visible Light 13h 56m
Length of Day
13h 04m
Tomorrow will be 2m 4s shorter.
Waxing Crescent, 5% of the Moon is Illuminated
Today
Waxing Crescent
Sep 2
First Quarter
Sep 8
Full
Sep 15
Last Quarter
Sep 24
New

Today's Extremes

State Highs State Lows

Community

WunderPhotos

Upload Photos

1,747,816 photos uploaded!

Nearby

Snow Depth

Station Depth Elevation
Quemazon 1 in 9500 ft
Wesner Springs 1 in 11120 ft
Gallegos Peak 0 in 9800 ft
Hopewell 0 in 10000 ft
Sierra Blanca 1 in 10280 ft

Earthquake Activity

City Distance Mag. Time & Date
No recent earthquake activity has been reported nearby.
Minimum magnitude displayed is 2.5.

Coastal Water Temperatures

Place Temperature
No Stations Reporting

Nearby Weather Stations